createdAt,value
2018-07-19T00:00:07.880Z,101444.03
2018-07-19T00:02:36.979Z,101445.92
2018-07-19T00:05:06.234Z,101450.02
2018-07-19T00:07:35.154Z,101445.09
2018-07-19T00:10:04.413Z,101453.83
2018-07-19T00:12:33.954Z,101465.02
2018-07-19T00:15:03.065Z,101461.21
2018-07-19T00:17:31.967Z,101466.55
2018-07-19T00:20:00.855Z,101456.84
2018-07-19T00:22:29.777Z,101456.70
2018-07-19T00:24:58.723Z,101457.95
2018-07-19T00:27:27.616Z,101462.05
2018-07-19T00:29:56.494Z,101455.19
2018-07-19T00:32:25.503Z,101459.20
2018-07-19T00:34:54.401Z,101456.80
2018-07-19T00:37:23.304Z,101456.73
2018-07-19T00:39:52.207Z,101455.59
2018-07-19T00:42:21.114Z,101447.13
2018-07-19T00:44:49.993Z,101447.45
2018-07-19T00:47:18.895Z,101447.75
2018-07-19T00:49:47.851Z,101451.84
2018-07-19T00:52:16.731Z,101443.91
2018-07-19T00:54:45.633Z,101452.91
2018-07-19T00:57:14.551Z,101446.07
2018-07-19T00:59:43.434Z,101446.07
2018-07-19T01:02:12.345Z,101434.86
2018-07-19T01:04:41.245Z,101436.52
2018-07-19T01:07:10.254Z,101442.56
2018-07-19T01:09:39.151Z,101435.44
2018-07-19T01:12:08.089Z,101441.46
2018-07-19T01:14:36.971Z,101438.17
2018-07-19T01:17:05.996Z,101440.89
2018-07-19T01:19:34.900Z,101438.97
2018-07-19T01:22:03.834Z,101436.25
2018-07-19T01:24:32.776Z,101436.25
2018-07-19T01:27:01.691Z,101434.06
2018-07-19T01:29:30.615Z,101435.72
2018-07-19T01:31:59.508Z,101433.50
2018-07-19T01:34:28.729Z,101433.51
2018-07-19T01:36:57.977Z,101434.89
2018-07-19T01:39:30.337Z,101434.34
2018-07-19T01:42:20.674Z,101436.52
2018-07-19T01:44:49.585Z,101434.36
2018-07-19T01:47:18.639Z,101433.52
2018-07-19T01:49:47.944Z,101429.17
2018-07-19T01:52:16.838Z,101427.86
2018-07-19T01:54:45.752Z,101431.41
2018-07-19T01:57:15.811Z,101424.04
2018-07-19T01:59:45.215Z,101424.04
2018-07-19T02:02:14.432Z,101423.53
2018-07-19T02:04:43.640Z,101426.56
2018-07-19T02:07:12.563Z,101434.65
2018-07-19T02:09:41.490Z,101438.73
2018-07-19T02:12:10.412Z,101441.59
2018-07-19T02:14:39.297Z,101448.66
2018-07-19T02:17:08.232Z,101450.34
2018-07-19T02:19:37.114Z,101446.88
2018-07-19T02:22:06.321Z,101446.87
2018-07-19T02:24:35.248Z,101443.30
2018-07-19T02:27:04.170Z,101448.45
2018-07-19T02:29:36.288Z,101450.09
2018-07-19T02:32:05.266Z,101447.59
2018-07-19T02:34:37.224Z,101444.79
2018-07-19T02:37:06.139Z,101445.03
2018-07-19T02:39:35.037Z,101444.47
2018-07-19T02:42:03.917Z,101446.11
2018-07-19T02:44:32.828Z,101446.61
2018-07-19T02:47:01.848Z,101448.69
2018-07-19T02:49:30.736Z,101439.08
2018-07-19T02:51:59.813Z,101447.56
2018-07-19T02:54:29.101Z,101442.05
2018-07-19T02:56:58.002Z,101446.00
2018-07-19T02:59:26.898Z,101449.83
2018-07-19T03:01:59.476Z,101442.41
2018-07-19T03:04:28.339Z,101449.42
2018-07-19T03:06:57.245Z,101441.75
2018-07-19T03:09:26.175Z,101444.47
2018-07-19T03:11:55.125Z,101433.83
2018-07-19T03:14:24.042Z,101432.45
2018-07-19T03:16:52.937Z,101434.05
2018-07-19T03:19:22.148Z,101438.95
2018-07-19T03:21:51.071Z,101441.37
2018-07-19T03:24:20.068Z,101443.68
2018-07-19T03:26:49.384Z,101437.48
2018-07-19T03:29:18.294Z,101433.64
2018-07-19T03:31:47.245Z,101436.08
2018-07-19T03:34:16.420Z,101439.83
2018-07-19T03:36:45.346Z,101435.16
2018-07-19T03:39:15.124Z,101435.42
2018-07-19T03:41:44.117Z,101439.83
2018-07-19T03:44:13.028Z,101441.19
2018-07-19T03:46:41.943Z,101440.84
2018-07-19T03:49:10.975Z,101442.30
2018-07-19T03:51:39.868Z,101442.67
2018-07-19T03:54:08.764Z,101444.38
2018-07-19T03:56:37.787Z,101447.13
2018-07-19T03:59:06.986Z,101443.86
2018-07-19T04:01:36.148Z,101447.39
2018-07-19T04:04:05.092Z,101444.38
2018-07-19T04:06:34.025Z,101446.61
2018-07-19T04:09:03.110Z,101442.52
2018-07-19T04:11:32.014Z,101434.88
2018-07-19T04:14:04.902Z,101440.40
2018-07-19T04:16:33.776Z,101444.88
2018-07-19T04:19:02.714Z,101449.92
2018-07-19T04:21:31.739Z,101448.80
2018-07-19T04:24:00.638Z,101443.40
2018-07-19T04:26:29.565Z,101440.38
2018-07-19T04:28:58.620Z,101439.26
2018-07-19T04:31:27.780Z,101440.36
2018-07-19T04:33:57.099Z,101439.86
2018-07-19T04:36:26.022Z,101438.81
2018-07-19T04:38:55.005Z,101437.75
2018-07-19T04:41:23.914Z,101439.14
2018-07-19T04:43:52.874Z,101436.91
2018-07-19T04:46:21.769Z,101435.59
2018-07-19T04:48:50.667Z,101443.28
2018-07-19T04:51:19.577Z,101444.88
2018-07-19T04:53:48.538Z,101442.44
2018-07-19T04:56:17.512Z,101439.04
2018-07-19T04:58:46.417Z,101448.11
2018-07-19T05:01:15.347Z,101448.89
2018-07-19T05:03:44.272Z,101446.42
2018-07-19T05:06:13.169Z,101450.81
2018-07-19T05:08:42.067Z,101453.55
2018-07-19T05:11:10.982Z,101449.82
2018-07-19T05:13:39.913Z,101450.41
2018-07-19T05:16:08.790Z,101459.43
2018-07-19T05:18:38.505Z,101458.37
2018-07-19T05:21:07.557Z,101458.96
2018-07-19T05:23:36.821Z,101461.47
2018-07-19T05:26:05.724Z,101464.23
2018-07-19T05:28:34.634Z,101460.14
2018-07-19T05:31:03.547Z,101459.91
2018-07-19T05:33:32.632Z,101459.12
2018-07-19T05:36:01.557Z,101457.22
2018-07-19T05:38:30.452Z,101461.09
2018-07-19T05:40:59.512Z,101463.86
2018-07-19T05:43:28.413Z,101457.92
2018-07-19T05:45:57.413Z,101463.13
2018-07-19T05:48:26.411Z,101464.20
2018-07-19T05:50:55.422Z,101456.30
2018-07-19T05:53:24.482Z,101455.25
2018-07-19T05:55:53.411Z,101460.72
2018-07-19T05:58:22.342Z,101456.38
2018-07-19T06:00:51.268Z,101456.68
2018-07-19T06:03:20.168Z,101457.80
2018-07-19T06:05:49.082Z,101457.25
2018-07-19T06:08:17.993Z,101451.55
2018-07-19T06:10:47.483Z,101457.55
2018-07-19T06:13:16.366Z,101453.47
2018-07-19T06:15:48.336Z,101457.05
2018-07-19T06:18:20.217Z,101455.69
2018-07-19T06:20:53.791Z,101458.95
2018-07-19T06:23:56.544Z,101459.80
2018-07-19T06:26:25.681Z,101463.94
2018-07-19T06:28:54.562Z,101463.10
2018-07-19T06:31:23.616Z,101465.84
2018-07-19T06:33:52.498Z,101461.78
2018-07-19T06:36:21.398Z,101462.62
2018-07-19T06:38:50.310Z,101461.50
2018-07-19T06:41:19.257Z,101465.38
2018-07-19T06:43:48.115Z,101454.44
2018-07-19T06:46:17.290Z,101461.00
2018-07-19T06:48:46.194Z,101460.16
2018-07-19T06:51:15.086Z,101452.23
2018-07-19T06:53:43.997Z,101455.81
2018-07-19T06:56:12.961Z,101456.09
2018-07-19T06:58:41.888Z,101457.72
2018-07-19T07:01:11.038Z,101457.72
2018-07-19T07:03:39.986Z,101459.64
2018-07-19T07:06:08.919Z,101458.55
2018-07-19T07:08:38.013Z,101464.83
2018-07-19T07:11:06.917Z,101464.55
2018-07-19T07:13:35.837Z,101470.02
2018-07-19T07:16:05.077Z,101468.66
2018-07-19T07:18:34.029Z,101467.56
2018-07-19T07:21:02.941Z,101465.38
2018-07-19T07:23:31.834Z,101470.86
2018-07-19T07:26:00.818Z,101476.05
2018-07-19T07:28:29.733Z,101479.06
2018-07-19T07:30:58.656Z,101473.03
2018-07-19T07:33:27.535Z,101478.48
2018-07-19T07:35:56.556Z,101483.42
2018-07-19T07:38:25.453Z,101485.30
2018-07-19T07:40:54.338Z,101480.66
2018-07-19T07:43:23.245Z,101486.14
2018-07-19T07:45:52.127Z,101486.94
2018-07-19T07:48:21.066Z,101495.14
2018-07-19T07:50:49.955Z,101496.78
2018-07-19T07:53:18.858Z,101500.89
2018-07-19T07:55:48.068Z,101494.84
2018-07-19T07:58:16.969Z,101497.56
2018-07-19T08:00:45.921Z,101495.38
2018-07-19T08:03:15.101Z,101494.23
2018-07-19T08:05:44.241Z,101495.02
2018-07-19T08:08:13.388Z,101494.75
2018-07-19T08:10:42.565Z,101491.75
2018-07-19T08:13:11.480Z,101489.52
2018-07-19T08:15:40.406Z,101488.98
2018-07-19T08:18:09.310Z,101481.80
2018-07-19T08:20:38.439Z,101485.03
2018-07-19T08:23:07.361Z,101486.94
2018-07-19T08:25:37.040Z,101491.92
2018-07-19T08:28:06.127Z,101482.07
2018-07-19T08:30:35.075Z,101478.72
2018-07-19T08:33:04.005Z,101482.30
2018-07-19T08:35:32.888Z,101481.41
2018-07-19T08:38:01.807Z,101479.19
2018-07-19T08:40:30.713Z,101475.04
2018-07-19T08:42:59.694Z,101480.49
2018-07-19T08:45:28.628Z,101480.48
2018-07-19T08:47:57.584Z,101474.71
2018-07-19T08:50:26.483Z,101475.24
2018-07-19T08:52:56.514Z,101468.34
2018-07-19T08:55:26.216Z,101467.73
2018-07-19T08:57:55.644Z,101468.52
2018-07-19T09:00:24.693Z,101466.57
2018-07-19T09:02:57.306Z,101468.71
2018-07-19T09:05:26.465Z,101464.75
2018-07-19T09:07:55.374Z,101463.03
2018-07-19T09:10:24.307Z,101461.88
2018-07-19T09:12:53.205Z,101462.45
2018-07-19T09:15:22.141Z,101460.27
2018-07-19T09:17:51.048Z,101461.13
2018-07-19T09:20:19.965Z,101462.70
2018-07-19T09:22:48.871Z,101455.97
2018-07-19T09:25:18.001Z,101457.83
2018-07-19T09:27:46.914Z,101456.67
2018-07-19T09:30:16.165Z,101453.84
2018-07-19T09:32:45.350Z,101455.70
2018-07-19T09:35:17.628Z,101448.20
2018-07-19T09:37:46.537Z,101446.77
2018-07-19T09:40:15.479Z,101448.41
2018-07-19T09:42:44.421Z,101444.58
2018-07-19T09:45:13.317Z,101448.31
2018-07-19T09:47:42.221Z,101448.45
2018-07-19T09:50:11.178Z,101441.20
2018-07-19T09:52:40.122Z,101432.19
2018-07-19T09:55:09.111Z,101436.78
2018-07-19T09:57:38.040Z,101430.54
2018-07-19T10:00:07.048Z,101430.91
2018-07-19T10:02:35.943Z,101425.10
2018-07-19T10:05:05.038Z,101428.66
2018-07-19T10:07:33.983Z,101430.27
2018-07-19T10:10:05.052Z,101424.08
2018-07-19T10:12:33.950Z,101422.66
2018-07-19T10:15:02.847Z,101427.21
2018-07-19T10:17:31.739Z,101426.55
2018-07-19T10:20:00.628Z,101427.08
2018-07-19T10:22:29.544Z,101423.13
2018-07-19T10:24:58.429Z,101427.09
2018-07-19T10:27:27.354Z,101417.38
2018-07-19T10:29:56.289Z,101418.25
2018-07-19T10:32:25.287Z,101411.54
2018-07-19T10:34:54.151Z,101415.14
2018-07-19T10:37:23.382Z,101414.89
2018-07-19T10:39:52.294Z,101416.20
2018-07-19T10:42:21.204Z,101415.41
2018-07-19T10:44:50.097Z,101413.22
2018-07-19T10:47:19.011Z,101414.44
2018-07-19T10:49:47.901Z,101405.72
2018-07-19T10:52:16.801Z,101405.77
2018-07-19T10:54:46.073Z,101402.17
2018-07-19T10:57:14.951Z,101403.50
2018-07-19T10:59:44.162Z,101400.47
2018-07-19T11:02:13.048Z,101406.09
2018-07-19T11:04:42.253Z,101400.42
2018-07-19T11:07:11.252Z,101397.92
2018-07-19T11:09:42.336Z,101396.23
2018-07-19T11:12:14.373Z,101397.67
2018-07-19T11:14:43.271Z,101395.84
2018-07-19T11:17:12.325Z,101390.56
2018-07-19T11:19:41.232Z,101392.62
2018-07-19T11:22:13.674Z,101389.91
2018-07-19T11:24:42.590Z,101380.44
2018-07-19T11:27:11.497Z,101384.17
2018-07-19T11:29:40.416Z,101371.08
2018-07-19T11:32:09.338Z,101375.55
2018-07-19T11:34:38.255Z,101374.48
2018-07-19T11:37:07.176Z,101373.44
2018-07-19T11:39:36.086Z,101365.14
2018-07-19T11:42:05.017Z,101371.64
2018-07-19T11:44:33.942Z,101366.03
2018-07-19T11:47:03.160Z,101367.91
2018-07-19T11:49:32.069Z,101358.45
2018-07-19T11:52:00.983Z,101356.61
2018-07-19T11:54:29.886Z,101354.94
2018-07-19T11:56:58.797Z,101346.29
2018-07-19T11:59:27.733Z,101351.05
2018-07-19T12:01:56.676Z,101350.99
2018-07-19T12:04:25.577Z,101342.85
2018-07-19T12:06:54.756Z,101343.48
2018-07-19T12:09:23.648Z,101342.22
2018-07-19T12:11:52.562Z,101338.82
2018-07-19T12:14:21.472Z,101335.64
2018-07-19T12:16:50.377Z,101343.91
2018-07-19T12:19:19.415Z,101336.88
2018-07-19T12:21:51.618Z,101337.80
2018-07-19T12:24:20.543Z,101339.75
2018-07-19T12:26:49.429Z,101334.16
2018-07-19T12:29:18.355Z,101340.28
2018-07-19T12:31:47.328Z,101335.86
2018-07-19T12:34:16.213Z,101336.55
2018-07-19T12:36:45.167Z,101330.39
2018-07-19T12:39:14.095Z,101327.89
2018-07-19T12:41:43.037Z,101330.11
2018-07-19T12:44:11.937Z,101330.33
2018-07-19T12:46:40.822Z,101329.53
2018-07-19T12:49:09.763Z,101326.53
2018-07-19T12:51:38.653Z,101327.20
2018-07-19T12:54:07.554Z,101323.50
2018-07-19T12:56:36.472Z,101326.60
2018-07-19T12:59:05.384Z,101328.95
2018-07-19T13:01:34.304Z,101323.78
2018-07-19T13:04:03.205Z,101322.06
2018-07-19T13:06:35.659Z,101324.78
2018-07-19T13:09:07.424Z,101320.85
2018-07-19T13:11:36.476Z,101311.08
2018-07-19T13:14:05.357Z,101315.73
2018-07-19T13:16:34.297Z,101316.55
2018-07-19T13:19:03.324Z,101313.05
2018-07-19T13:21:32.271Z,101307.34
2018-07-19T13:24:01.171Z,101306.58
2018-07-19T13:26:30.066Z,101309.86
2018-07-19T13:28:58.965Z,101310.72
2018-07-19T13:31:27.877Z,101310.59
2018-07-19T13:33:56.792Z,101303.25
2018-07-19T13:36:25.748Z,101304.20
2018-07-19T13:38:54.629Z,101306.27
2018-07-19T13:41:23.552Z,101306.09
2018-07-19T13:43:52.455Z,101306.09
2018-07-19T13:46:25.218Z,101299.92
2018-07-19T13:48:54.135Z,101300.04
2018-07-19T13:51:23.025Z,101301.19
2018-07-19T13:54:16.503Z,101297.91
2018-07-19T13:56:45.703Z,101298.28
2018-07-19T13:59:15.641Z,101299.36
2018-07-19T14:01:45.482Z,101295.08
2018-07-19T14:04:15.323Z,101294.16
2018-07-19T14:06:44.535Z,101293.64
2018-07-19T14:09:19.392Z,101291.78
2018-07-19T14:11:48.356Z,101286.38
2018-07-19T14:14:17.248Z,101285.51
2018-07-19T14:16:46.142Z,101287.62
2018-07-19T14:19:15.195Z,101278.31
2018-07-19T14:21:44.071Z,101277.73
2018-07-19T14:24:16.100Z,101279.98
2018-07-19T14:26:45.007Z,101277.73
2018-07-19T14:29:14.073Z,101276.10
2018-07-19T14:31:42.975Z,101276.20
2018-07-19T14:34:11.911Z,101273.32
2018-07-19T14:36:40.798Z,101269.19
2018-07-19T14:39:11.939Z,101276.98
2018-07-19T14:41:40.821Z,101276.47
2018-07-19T14:44:09.996Z,101266.19
2018-07-19T14:46:39.066Z,101269.81
2018-07-19T14:49:08.082Z,101271.33
2018-07-19T14:51:36.983Z,101266.88
2018-07-19T14:54:05.858Z,101261.96
2018-07-19T14:56:34.857Z,101256.50
2018-07-19T14:59:03.741Z,101253.61
2018-07-19T15:01:32.640Z,101248.73
2018-07-19T15:04:01.553Z,101242.17
2018-07-19T15:06:30.442Z,101245.45
2018-07-19T15:08:59.383Z,101245.39
2018-07-19T15:11:28.239Z,101239.53
2018-07-19T15:13:57.133Z,101250.22
2018-07-19T15:16:26.034Z,101237.48
2018-07-19T15:18:54.943Z,101240.41
2018-07-19T15:21:23.900Z,101238.01
2018-07-19T15:23:52.880Z,101232.70
2018-07-19T15:26:21.771Z,101232.38
2018-07-19T15:28:50.776Z,101233.66
2018-07-19T15:31:19.609Z,101228.09
2018-07-19T15:33:48.567Z,101229.00
2018-07-19T15:36:17.461Z,101227.88
2018-07-19T15:38:46.429Z,101220.56
2018-07-19T15:41:15.367Z,101217.44
2018-07-19T15:43:44.267Z,101221.66
2018-07-19T15:46:13.197Z,101217.04
2018-07-19T15:48:42.101Z,101219.04
2018-07-19T15:51:10.985Z,101213.66
2018-07-19T15:53:39.945Z,101211.03
2018-07-19T15:56:08.860Z,101208.16
2018-07-19T15:58:37.756Z,101213.17
2018-07-19T16:01:06.671Z,101208.48
2018-07-19T16:03:35.572Z,101205.66
2018-07-19T16:06:04.481Z,101197.66
2018-07-19T16:08:33.414Z,101198.24
2018-07-19T16:11:02.309Z,101192.31
2018-07-19T16:13:31.189Z,101189.12
2018-07-19T16:16:00.078Z,101191.08
2018-07-19T16:18:29.049Z,101185.48
2018-07-19T16:20:57.961Z,101185.73
2018-07-19T16:23:27.012Z,101191.95
2018-07-19T16:25:55.962Z,101191.55
2018-07-19T16:28:25.033Z,101179.77
2018-07-19T16:30:53.915Z,101181.63
2018-07-19T16:33:23.096Z,101175.27
2018-07-19T16:35:51.986Z,101172.36
2018-07-19T16:38:20.926Z,101171.92
2018-07-19T16:40:49.998Z,101168.66
2018-07-19T16:43:19.218Z,101168.73
2018-07-19T16:45:48.424Z,101167.53
2018-07-19T16:48:17.419Z,101164.03
2018-07-19T16:50:46.552Z,101169.81
2018-07-19T16:53:15.750Z,101164.50
2018-07-19T16:55:44.890Z,101161.74
2018-07-19T16:58:14.037Z,101167.15
2018-07-19T17:00:43.182Z,101163.85
2018-07-19T17:03:12.106Z,101167.81
2018-07-19T17:05:41.022Z,101162.10
2018-07-19T17:08:10.141Z,101155.34
2018-07-19T17:10:39.023Z,101152.36
2018-07-19T17:13:08.257Z,101147.91
2018-07-19T17:15:40.866Z,101152.52
2018-07-19T17:18:09.816Z,101155.02
2018-07-19T17:20:38.733Z,101144.22
2018-07-19T17:23:07.615Z,101148.56
2018-07-19T17:25:36.547Z,101152.39
2018-07-19T17:28:05.619Z,101144.92
2018-07-19T17:30:34.848Z,101147.33
2018-07-19T17:33:03.785Z,101149.20
2018-07-19T17:35:35.069Z,101149.08
2018-07-19T17:38:03.943Z,101142.66
2018-07-19T17:40:32.900Z,101142.37
2018-07-19T17:43:01.836Z,101143.97
2018-07-19T17:45:30.696Z,101143.88
2018-07-19T17:47:59.632Z,101143.38
2018-07-19T17:50:28.721Z,101146.34
2018-07-19T17:52:57.649Z,101137.20
2018-07-19T17:55:26.534Z,101143.38
2018-07-19T17:57:55.453Z,101138.63
2018-07-19T18:00:28.008Z,101138.37
2018-07-19T18:02:57.021Z,101142.39
2018-07-19T18:05:29.864Z,101142.20
2018-07-19T18:08:02.723Z,101138.97
2018-07-19T18:10:31.669Z,101137.59
2018-07-19T18:13:00.588Z,101140.71
2018-07-19T18:15:30.054Z,101140.78
2018-07-19T18:17:58.988Z,101138.85
2018-07-19T18:20:27.916Z,101141.67
2018-07-19T18:23:00.607Z,101139.33
2018-07-19T18:25:29.531Z,101139.33
2018-07-19T18:27:58.398Z,101132.82
2018-07-19T18:30:27.322Z,101137.35
2018-07-19T18:32:56.290Z,101130.91
2018-07-19T18:35:25.199Z,101132.77
2018-07-19T18:37:54.105Z,101130.69
2018-07-19T18:40:23.003Z,101131.95
2018-07-19T18:42:51.926Z,101129.64
2018-07-19T18:45:20.841Z,101131.02
2018-07-19T18:47:49.779Z,101133.91
2018-07-19T18:50:18.649Z,101135.16
2018-07-19T18:52:47.725Z,101135.29
2018-07-19T18:55:16.617Z,101137.11
2018-07-19T18:57:49.474Z,101132.84
2018-07-19T19:00:18.364Z,101144.57
2018-07-19T19:02:47.261Z,101142.55
2018-07-19T19:05:16.167Z,101145.25
2018-07-19T19:07:45.243Z,101140.41
2018-07-19T19:10:14.156Z,101149.20
2018-07-19T19:12:43.084Z,101148.56
2018-07-19T19:15:15.337Z,101148.08
2018-07-19T19:17:44.226Z,101141.86
2018-07-19T19:20:13.168Z,101150.52
2018-07-19T19:22:42.027Z,101149.25
2018-07-19T19:25:10.923Z,101155.72
2018-07-19T19:27:39.837Z,101152.77
2018-07-19T19:30:08.764Z,101155.01
2018-07-19T19:32:37.741Z,101153.78
2018-07-19T19:35:06.621Z,101159.61
2018-07-19T19:37:35.750Z,101159.47
2018-07-19T19:40:04.892Z,101159.95
2018-07-19T19:42:33.799Z,101162.25
2018-07-19T19:45:02.838Z,101158.44
2018-07-19T19:47:31.724Z,101168.70
2018-07-19T19:50:00.668Z,101161.52
2018-07-19T19:52:29.555Z,101158.72
2018-07-19T19:54:58.524Z,101169.84
2018-07-19T19:57:27.482Z,101167.98
2018-07-19T19:59:56.514Z,101171.95
2018-07-19T20:02:25.417Z,101174.13
2018-07-19T20:04:54.549Z,101169.48
2018-07-19T20:07:23.431Z,101170.11
2018-07-19T20:09:52.349Z,101176.47
2018-07-19T20:12:21.275Z,101175.77
2018-07-19T20:14:50.292Z,101183.02
2018-07-19T20:17:19.178Z,101184.20
2018-07-19T20:19:48.051Z,101183.50
2018-07-19T20:22:17.101Z,101191.03
2018-07-19T20:24:46.097Z,101182.87
2018-07-19T20:27:14.990Z,101189.09
2018-07-19T20:29:43.897Z,101190.83
2018-07-19T20:32:12.833Z,101193.63
2018-07-19T20:34:41.792Z,101197.58
2018-07-19T20:37:10.828Z,101199.28
2018-07-19T20:39:39.841Z,101198.52
2018-07-19T20:42:08.795Z,101203.31
2018-07-19T20:44:37.753Z,101202.83
2018-07-19T20:47:06.757Z,101203.53
2018-07-19T20:49:35.788Z,101204.44
2018-07-19T20:52:04.840Z,101208.99
2018-07-19T20:54:34.223Z,101201.62
2018-07-19T20:57:03.413Z,101210.27
2018-07-19T20:59:32.314Z,101206.18
2018-07-19T21:02:01.368Z,101212.06
2018-07-19T21:04:30.445Z,101217.26
2018-07-19T21:06:59.352Z,101216.99
2018-07-19T21:09:28.321Z,101214.36
2018-07-19T21:11:57.213Z,101211.61
2018-07-19T21:14:26.155Z,101211.08
2018-07-19T21:16:55.048Z,101211.16
2018-07-19T21:19:23.987Z,101213.94
2018-07-19T21:21:52.888Z,101218.67
2018-07-19T21:24:21.837Z,101219.78
2018-07-19T21:26:50.745Z,101218.75
2018-07-19T21:29:20.008Z,101214.96
2018-07-19T21:31:48.879Z,101213.09
2018-07-19T21:34:17.898Z,101213.70
2018-07-19T21:36:46.867Z,101212.70
2018-07-19T21:39:16.249Z,101224.30
2018-07-19T21:41:45.235Z,101221.28
2018-07-19T21:44:14.147Z,101221.01
2018-07-19T21:46:43.031Z,101224.36
2018-07-19T21:49:12.038Z,101221.08
2018-07-19T21:51:41.036Z,101219.50
2018-07-19T21:54:09.979Z,101215.18
2018-07-19T21:56:39.114Z,101216.79
2018-07-19T21:59:07.964Z,101215.78
2018-07-19T22:01:41.011Z,101221.34
2018-07-19T22:04:10.587Z,101219.90
2018-07-19T22:06:39.475Z,101213.39
2018-07-19T22:09:10.125Z,101217.07
2018-07-19T22:11:39.367Z,101209.40
2018-07-19T22:14:08.616Z,101212.14
2018-07-19T22:16:39.023Z,101209.13
2018-07-19T22:19:07.985Z,101216.59
2018-07-19T22:21:36.899Z,101216.66
2018-07-19T22:24:05.800Z,101218.05
2018-07-19T22:26:34.686Z,101218.86
2018-07-19T22:29:03.758Z,101215.34
2018-07-19T22:31:32.729Z,101218.38
2018-07-19T22:34:01.579Z,101223.05
2018-07-19T22:36:30.507Z,101222.28
2018-07-19T22:38:59.549Z,101220.18
2018-07-19T22:41:28.513Z,101221.28
2018-07-19T22:43:57.499Z,101217.30
2018-07-19T22:46:26.391Z,101221.19
2018-07-19T22:48:56.084Z,101226.16
2018-07-19T22:51:25.533Z,101223.20
2018-07-19T22:53:54.574Z,101217.98
2018-07-19T22:56:23.668Z,101225.17
2018-07-19T22:58:52.608Z,101217.02
2018-07-19T23:01:21.560Z,101219.30
2018-07-19T23:03:50.517Z,101217.13
2018-07-19T23:06:19.417Z,101215.80
2018-07-19T23:08:48.433Z,101210.40
2018-07-19T23:11:17.363Z,101211.52
2018-07-19T23:13:46.577Z,101210.47
2018-07-19T23:16:15.762Z,101213.52
2018-07-19T23:18:44.690Z,101208.37
2018-07-19T23:21:13.555Z,101204.33
2018-07-19T23:23:42.465Z,101206.80
2018-07-19T23:26:11.405Z,101206.00
2018-07-19T23:28:40.318Z,101199.73
2018-07-19T23:31:09.313Z,101202.25
2018-07-19T23:33:38.222Z,101202.27
2018-07-19T23:36:10.358Z,101200.89
2018-07-19T23:38:45.355Z,101195.70
2018-07-19T23:41:22.646Z,101193.01
2018-07-19T23:43:55.193Z,101191.92
2018-07-19T23:46:30.241Z,101191.41
2018-07-19T23:49:03.325Z,101190.35
2018-07-19T23:51:32.226Z,101190.62
2018-07-19T23:54:01.149Z,101187.05
2018-07-19T23:56:30.071Z,101185.16
2018-07-19T23:58:58.969Z,101183.53
